Rollet, Canada
Current Conditions -  °F | °C
As of 2:00 PM on Friday 24 Oct 2014 (Local Time) from CYUY Reporting Station
Few Clouds Few Clouds  
Wind Chill: 55°   Ceiling: Unl
Heat Index: 55°   Visibility: 15mi
Dew Point: 30°   Wind: 12mph
Humidity: 38%   Direction: 240°WSW
Pressure: 29.89"   Gusts: NA
Location:  47.93°N, 79.25°W
Report Text: CYUY 241800Z 24010KT 200V280 15SM FEW160 FEW240 13/M01 A2989 RMK AC1CI2 AC TR SLP135
Loading
Personal Weather Stations






























Interactive Weather Map
Tropical Storm Tracking
New forecast layout! Learn more

10-Day Weather Forecast

Advertisements
Track Severe Weather on mobile